Time,TemperatureF,DewpointF,PressureIn,WindDirection,WindDirectionDegrees,WindSpeedMPH,WindSpeedGustMPH,Humidity,HourlyPrecipIn,Conditions,Clouds,dailyrainin,SoftwareType,DateUTC
2013-06-27 00:01:00,70.9,70.0,29.82,WNW,294,0.0,0.0,97,13.20,,,33.95,meteohub,2013-06-27 04:01:00,
2013-06-27 00:02:00,70.9,70.0,29.82,WNW,294,0.0,0.0,97,13.20,,,33.95,meteohub,2013-06-27 04:02:00,
2013-06-27 00:05:00,70.9,70.0,29.81,WNW,294,0.0,0.0,97,13.56,,,35.39,meteohub,2013-06-27 04:05:00,
2013-06-27 00:10:00,70.9,70.0,29.81,WNW,294,0.0,0.0,97,13.80,,,36.83,meteohub,2013-06-27 04:10:00,
2013-06-27 00:15:00,70.9,70.0,29.81,WNW,294,0.0,0.0,97,13.32,,,37.55,meteohub,2013-06-27 04:15:00,
2013-06-27 00:20:00,70.7,69.8,29.81,WNW,294,0.0,0.0,97,13.47,,,38.78,meteohub,2013-06-27 04:20:00,
2013-06-27 00:25:00,70.5,69.6,29.81,WNW,294,0.0,0.0,97,12.99,,,39.50,meteohub,2013-06-27 04:25:00,
2013-06-27 00:31:00,70.5,69.6,29.81,WNW,294,0.0,0.0,97,13.35,,,41.06,meteohub,2013-06-27 04:31:00,
2013-06-27 00:36:00,70.5,69.6,29.81,WNW,294,0.0,0.0,97,13.29,,,42.08,meteohub,2013-06-27 04:36:00,
2013-06-27 00:41:00,70.3,69.4,29.81,WNW,294,0.0,0.0,97,12.09,,,42.08,meteohub,2013-06-27 04:41:00,
2013-06-27 00:46:00,70.3,69.4,29.81,WNW,294,0.0,0.0,97,11.01,,,42.08,meteohub,2013-06-27 04:46:00,
2013-06-27 00:51:00,70.2,69.3,29.81,WNW,294,0.0,0.0,97,9.81,,,42.08,meteohub,2013-06-27 04:51:00,
2013-06-27 00:56:00,70.0,69.1,29.81,WNW,294,0.0,0.0,97,8.61,,,42.08,meteohub,2013-06-27 04:56:00,
2013-06-27 01:02:00,70.0,69.1,29.81,WNW,294,0.0,0.0,97,7.42,,,42.09,meteohub,2013-06-27 05:02:00,
2013-06-27 01:07:00,69.8,68.9,29.81,WNW,294,0.0,0.0,97,6.34,,,42.09,meteohub,2013-06-27 05:07:00,
2013-06-27 01:12:00,69.6,68.7,29.81,WNW,294,0.0,0.0,97,5.14,,,42.09,meteohub,2013-06-27 05:12:00,
2013-06-27 01:17:00,69.6,68.7,29.80,WNW,294,0.0,0.0,97,3.94,,,42.09,meteohub,2013-06-27 05:17:00,
2013-06-27 01:22:00,69.4,68.5,29.80,WNW,294,0.0,0.0,97,2.95,,,42.09,meteohub,2013-06-27 05:22:00,
2013-06-27 01:27:00,69.4,68.5,29.80,WNW,294,0.0,0.0,97,2.92,,,43.26,meteohub,2013-06-27 05:27:00,
2013-06-27 01:32:00,69.4,68.5,29.80,WNW,294,0.0,0.0,97,2.43,,,43.97,meteohub,2013-06-27 05:32:00,
2013-06-27 01:37:00,69.4,68.5,29.80,WNW,294,0.0,0.0,97,3.33,,,45.41,meteohub,2013-06-27 05:37:00,
2013-06-27 01:42:00,69.3,68.4,29.79,WNW,294,0.0,0.0,97,4.05,,,46.13,meteohub,2013-06-27 05:42:00,
2013-06-27 01:47:00,69.3,68.4,29.79,WNW,294,0.0,0.0,97,4.72,,,46.80,meteohub,2013-06-27 05:47:00,
2013-06-27 01:52:00,69.1,68.2,29.79,WNW,294,0.0,0.0,97,4.72,,,46.80,meteohub,2013-06-27 05:52:00,
2013-06-27 01:57:00,69.1,68.2,29.79,WNW,294,0.0,0.0,97,4.72,,,46.80,meteohub,2013-06-27 05:57:00,
2013-06-27 02:02:00,68.9,68.0,29.79,WNW,294,0.0,0.0,97,4.71,,,46.80,meteohub,2013-06-27 06:02:00,
2013-06-27 02:07:00,68.7,67.8,29.79,WNW,294,0.0,0.0,97,4.71,,,46.80,meteohub,2013-06-27 06:07:00,
2013-06-27 02:12:00,68.7,67.8,29.78,WNW,294,0.0,0.0,97,4.71,,,46.80,meteohub,2013-06-27 06:12:00,
2013-06-27 02:17:00,68.7,67.8,29.78,WNW,294,0.0,0.0,97,4.71,,,46.80,meteohub,2013-06-27 06:17:00,
2013-06-27 02:22:00,68.5,67.6,29.78,WNW,294,0.0,0.0,97,4.61,,,46.80,meteohub,2013-06-27 06:22:00,
2013-06-27 02:28:00,68.5,67.6,29.77,WNW,294,0.0,0.0,97,4.15,,,47.52,meteohub,2013-06-27 06:28:00,
2013-06-27 02:33:00,68.4,67.5,29.77,WNW,294,0.0,0.0,97,3.79,,,48.36,meteohub,2013-06-27 06:33:00,
2013-06-27 02:38:00,68.4,67.5,29.76,WNW,294,0.0,0.0,97,3.91,,,49.68,meteohub,2013-06-27 06:38:00,
2013-06-27 02:43:00,68.4,67.5,29.76,WNW,294,0.0,0.0,97,4.32,,,51.12,meteohub,2013-06-27 06:43:00,
2013-06-27 02:48:00,68.4,67.5,29.75,WNW,294,0.0,0.0,97,5.04,,,51.84,meteohub,2013-06-27 06:48:00,
2013-06-27 02:53:00,68.2,67.6,29.75,WNW,294,0.0,0.0,98,6.48,,,53.28,meteohub,2013-06-27 06:53:00,
2013-06-27 02:59:00,68.2,67.6,29.76,WNW,294,0.0,0.0,98,7.92,,,54.72,meteohub,2013-06-27 06:59:00,
2013-06-27 03:04:00,68.2,67.6,29.76,WNW,294,0.0,0.0,98,8.64,,,55.44,meteohub,2013-06-27 07:04:00,
2013-06-27 03:09:00,68.2,67.6,29.76,WNW,294,0.0,0.0,98,10.08,,,56.88,meteohub,2013-06-27 07:09:00,
2013-06-27 03:14:00,68.0,67.5,29.76,WNW,294,0.0,0.0,98,10.80,,,57.60,meteohub,2013-06-27 07:14:00,
2013-06-27 03:19:00,67.8,67.3,29.76,WNW,294,0.0,0.0,98,12.36,,,59.16,meteohub,2013-06-27 07:19:00,
2013-06-27 03:24:00,67.8,67.3,29.76,WNW,294,0.0,0.0,98,13.05,,,59.85,meteohub,2013-06-27 07:24:00,
2013-06-27 03:30:00,67.6,66.7,29.76,WNW,294,0.0,0.0,97,12.07,,,59.95,meteohub,2013-06-27 07:30:00,
2013-06-27 03:35:00,67.6,66.7,29.77,WNW,294,0.0,0.0,97,9.79,,,59.95,meteohub,2013-06-27 07:35:00,
2013-06-27 03:40:00,67.5,66.6,29.76,WNW,294,0.0,0.0,97,8.59,,,59.95,meteohub,2013-06-27 07:40:00,
2013-06-27 03:45:00,67.5,66.9,29.77,WNW,294,0.0,0.0,98,7.39,,,59.95,meteohub,2013-06-27 07:45:00,
2013-06-27 03:50:00,67.5,66.9,29.77,WNW,294,0.0,0.0,98,6.77,,,60.53,meteohub,2013-06-27 07:50:00,
2013-06-27 03:55:00,67.3,66.7,29.77,WNW,294,0.0,0.0,98,5.73,,,60.69,meteohub,2013-06-27 07:55:00,
2013-06-27 04:00:00,67.3,66.7,29.78,WNW,294,0.0,0.0,98,4.53,,,60.69,meteohub,2013-06-27 08:00:00,
2013-06-27 04:06:00,67.3,66.7,29.78,WNW,294,0.0,0.0,98,3.45,,,60.69,meteohub,2013-06-27 08:06:00,
2013-06-27 04:11:00,67.1,66.6,29.78,WNW,294,0.0,0.0,98,2.26,,,60.70,meteohub,2013-06-27 08:11:00,
2013-06-27 04:16:00,67.1,66.6,29.78,WNW,294,0.0,0.0,98,2.86,,,61.37,meteohub,2013-06-27 08:16:00,
2013-06-27 04:21:00,67.1,66.6,29.78,WNW,294,0.0,0.0,98,2.78,,,62.63,meteohub,2013-06-27 08:21:00,
2013-06-27 04:26:00,67.1,66.6,29.78,WNW,294,0.0,0.0,98,4.00,,,63.95,meteohub,2013-06-27 08:26:00,
2013-06-27 04:31:00,66.9,66.4,29.78,WNW,294,0.0,0.0,98,4.72,,,64.67,meteohub,2013-06-27 08:31:00,
2013-06-27 04:37:00,66.9,66.4,29.78,WNW,294,0.0,0.0,98,5.44,,,65.39,meteohub,2013-06-27 08:37:00,
2013-06-27 04:42:00,66.9,66.4,29.79,WNW,294,0.0,0.0,98,7.60,,,67.55,meteohub,2013-06-27 08:42:00,
2013-06-27 04:47:00,66.9,66.4,29.78,WNW,294,0.0,0.0,98,8.08,,,68.15,meteohub,2013-06-27 08:47:00,
2013-06-27 04:52:00,66.9,66.4,29.78,WNW,294,0.0,0.0,98,9.00,,,69.69,meteohub,2013-06-27 08:52:00,
2013-06-27 04:57:00,66.7,66.2,29.78,WNW,294,0.0,0.0,98,10.44,,,71.01,meteohub,2013-06-27 08:57:00,
2013-06-27 05:02:00,66.7,66.2,29.78,WNW,294,0.0,0.0,98,11.16,,,71.85,meteohub,2013-06-27 09:02:00,
2013-06-27 05:07:00,66.7,66.2,29.78,WNW,294,0.0,0.0,98,12.60,,,73.29,meteohub,2013-06-27 09:07:00,
2013-06-27 05:12:00,66.7,66.2,29.78,WNW,294,0.0,0.0,98,13.04,,,74.05,meteohub,2013-06-27 09:12:00,
2013-06-27 05:17:00,66.6,66.0,29.78,WNW,294,0.0,0.0,98,12.52,,,74.77,meteohub,2013-06-27 09:17:00,
2013-06-27 05:22:00,66.6,66.0,29.78,WNW,294,0.0,0.0,98,13.94,,,76.93,meteohub,2013-06-27 09:22:00,
2013-06-27 05:27:00,66.6,66.0,29.78,WNW,294,0.0,0.0,98,13.46,,,77.65,meteohub,2013-06-27 09:27:00,
2013-06-27 05:32:00,66.6,66.0,29.78,WNW,294,0.0,0.0,98,13.58,,,78.97,meteohub,2013-06-27 09:32:00,
2013-06-27 05:37:00,66.6,66.0,29.78,WNW,294,0.0,0.0,98,13.10,,,79.69,meteohub,2013-06-27 09:37:00,
2013-06-27 05:42:00,66.6,66.0,29.78,WNW,294,0.0,0.0,98,13.58,,,81.25,meteohub,2013-06-27 09:42:00,
2013-06-27 05:47:00,66.6,66.0,29.78,WNW,294,0.0,0.0,98,13.94,,,82.69,meteohub,2013-06-27 09:47:00,
2013-06-27 05:52:00,66.6,66.0,29.79,WNW,294,0.0,0.0,98,13.36,,,83.41,meteohub,2013-06-27 09:52:00,
2013-06-27 05:57:00,66.7,66.4,29.79,WNW,294,0.0,0.0,99,13.60,,,84.85,meteohub,2013-06-27 09:57:00,
2013-06-27 06:02:00,66.7,66.4,29.79,WNW,294,0.0,0.0,99,13.96,,,86.29,meteohub,2013-06-27 10:02:00,
2013-06-27 06:07:00,66.9,66.6,29.79,WNW,294,0.0,0.0,99,13.45,,,86.98,meteohub,2013-06-27 10:07:00,
2013-06-27 06:12:00,67.1,66.7,29.80,WNW,294,0.0,0.0,99,13.33,,,87.98,meteohub,2013-06-27 10:12:00,
2013-06-27 06:17:00,67.3,66.9,29.80,WNW,294,0.0,0.0,99,12.73,,,88.58,meteohub,2013-06-27 10:17:00,
2013-06-27 06:22:00,67.5,67.1,29.80,WNW,294,0.0,0.0,99,13.09,,,90.14,meteohub,2013-06-27 10:22:00,
2013-06-27 06:27:00,67.6,67.3,29.80,WNW,294,0.0,0.0,99,13.13,,,91.26,meteohub,2013-06-27 10:27:00,
2013-06-27 06:32:00,67.8,67.5,29.80,WNW,294,0.0,0.0,99,12.11,,,91.44,meteohub,2013-06-27 10:32:00,
2013-06-27 06:37:00,68.0,67.6,29.80,WNW,294,0.0,0.0,99,11.39,,,91.92,meteohub,2013-06-27 10:37:00,
2013-06-27 06:42:00,68.2,67.8,29.80,WNW,294,0.0,0.0,99,10.72,,,92.45,meteohub,2013-06-27 10:42:00,
2013-06-27 06:47:00,68.4,68.0,29.80,WNW,294,0.0,0.0,99,9.52,,,92.45,meteohub,2013-06-27 10:47:00,
2013-06-27 06:52:00,68.4,68.0,29.80,WNW,294,0.0,0.0,99,8.44,,,92.45,meteohub,2013-06-27 10:52:00,
2013-06-27 06:57:00,68.4,68.0,29.81,WNW,294,0.0,0.0,99,7.24,,,92.45,meteohub,2013-06-27 10:57:00,
2013-06-27 07:02:00,68.4,68.0,29.81,WNW,294,0.0,0.0,99,6.04,,,92.45,meteohub,2013-06-27 11:02:00,
2013-06-27 07:07:00,68.4,68.0,29.81,WNW,294,0.0,0.0,99,5.11,,,92.45,meteohub,2013-06-27 11:07:00,
2013-06-27 07:12:00,68.4,68.0,29.81,WNW,294,0.0,0.0,99,4.11,,,92.45,meteohub,2013-06-27 11:12:00,
2013-06-27 07:17:00,68.5,68.2,29.81,WNW,294,0.0,0.0,99,3.03,,,92.45,meteohub,2013-06-27 11:17:00,
2013-06-27 07:22:00,68.5,68.2,29.81,WNW,294,0.0,0.0,99,1.83,,,92.45,meteohub,2013-06-27 11:22:00,
2013-06-27 07:27:00,68.5,68.2,29.81,WNW,294,0.0,0.0,99,1.13,,,92.47,meteohub,2013-06-27 11:27:00,
2013-06-27 07:32:00,68.5,68.2,29.81,WNW,294,0.0,0.0,99,0.84,,,92.59,meteohub,2013-06-27 11:32:00,
2013-06-27 07:37:00,68.5,68.2,29.81,WNW,294,0.0,0.0,99,1.01,,,93.02,meteohub,2013-06-27 11:37:00,
2013-06-27 07:42:00,68.7,68.4,29.81,WNW,294,0.0,0.0,99,0.57,,,93.02,meteohub,2013-06-27 11:42:00,
2013-06-27 07:47:00,68.7,68.4,29.80,WNW,294,0.0,0.0,99,0.57,,,93.02,meteohub,2013-06-27 11:47:00,
2013-06-27 07:52:00,68.9,68.4,29.80,WNW,294,0.0,0.0,98,0.57,,,93.02,meteohub,2013-06-27 11:52:00,
2013-06-27 07:57:00,69.1,68.7,29.80,WNW,294,0.0,0.0,99,0.57,,,93.02,meteohub,2013-06-27 11:57:00,
2013-06-27 08:02:00,69.1,68.7,29.80,WNW,294,0.0,0.0,99,0.63,,,93.08,meteohub,2013-06-27 12:02:00,
2013-06-27 08:07:00,69.3,68.9,29.80,WNW,294,0.0,0.0,99,0.63,,,93.08,meteohub,2013-06-27 12:07:00,
2013-06-27 08:12:00,69.3,68.9,29.80,WNW,294,0.0,0.0,99,0.63,,,93.08,meteohub,2013-06-27 12:12:00,
2013-06-27 08:17:00,69.3,68.9,29.80,WNW,294,0.0,0.0,99,0.66,,,93.11,meteohub,2013-06-27 12:17:00,
2013-06-27 08:22:00,69.4,69.1,29.80,WNW,294,0.0,0.0,99,0.66,,,93.11,meteohub,2013-06-27 12:22:00,
2013-06-27 08:27:00,69.6,69.3,29.81,WNW,294,0.0,0.0,99,0.57,,,93.11,meteohub,2013-06-27 12:27:00,
2013-06-27 08:32:00,69.6,69.1,29.81,WNW,294,0.0,0.0,98,0.52,,,93.11,meteohub,2013-06-27 12:32:00,
2013-06-27 08:37:00,69.6,69.1,29.81,WNW,294,0.0,0.0,98,0.09,,,93.11,meteohub,2013-06-27 12:37:00,
2013-06-27 08:42:00,69.8,69.3,29.81,WNW,294,0.0,0.0,98,0.22,,,93.24,meteohub,2013-06-27 12:42:00,
2013-06-27 08:47:00,69.8,69.3,29.81,WNW,294,0.0,0.0,98,0.92,,,93.94,meteohub,2013-06-27 12:47:00,
2013-06-27 08:52:00,70.0,69.6,29.80,WNW,294,0.0,0.0,99,2.36,,,95.38,meteohub,2013-06-27 12:52:00,
2013-06-27 08:57:00,70.2,69.8,29.81,WNW,294,0.0,0.0,99,2.46,,,95.48,meteohub,2013-06-27 12:57:00,
2013-06-27 09:02:00,70.3,69.8,29.80,WNW,294,0.0,0.0,98,2.40,,,95.48,meteohub,2013-06-27 13:02:00,
2013-06-27 09:07:00,70.5,70.2,29.80,WNW,294,0.0,0.0,99,2.40,,,95.48,meteohub,2013-06-27 13:07:00,
2013-06-27 09:12:00,70.7,70.2,29.80,WNW,294,0.0,0.0,98,2.37,,,95.48,meteohub,2013-06-27 13:12:00,
2013-06-27 09:17:00,70.9,70.3,29.80,WNW,294,0.0,0.0,98,2.37,,,95.48,meteohub,2013-06-27 13:17:00,
2013-06-27 09:22:00,71.2,70.7,29.80,WNW,294,0.0,0.0,98,2.37,,,95.48,meteohub,2013-06-27 13:22:00,
2013-06-27 09:27:00,71.4,70.9,29.80,WNW,294,0.0,0.0,98,2.37,,,95.48,meteohub,2013-06-27 13:27:00,
2013-06-27 09:32:00,71.8,71.2,29.80,WNW,294,0.0,0.0,98,2.37,,,95.48,meteohub,2013-06-27 13:32:00,
2013-06-27 09:37:00,71.8,70.9,29.80,WNW,294,0.0,0.0,97,2.37,,,95.48,meteohub,2013-06-27 13:37:00,
2013-06-27 09:43:00,71.8,70.9,29.80,WNW,294,0.0,0.0,97,2.15,,,95.48,meteohub,2013-06-27 13:43:00,
2013-06-27 09:48:00,72.0,71.1,29.80,WNW,294,0.0,0.0,97,1.06,,,95.48,meteohub,2013-06-27 13:48:00,
2013-06-27 09:53:00,72.1,71.2,29.80,WNW,294,0.0,0.0,97,0.00,,,95.48,meteohub,2013-06-27 13:53:00,
2013-06-27 09:58:00,72.1,70.9,29.80,WNW,294,0.0,0.0,96,0.00,,,95.48,meteohub,2013-06-27 13:58:00,
2013-06-27 10:03:00,72.3,71.1,29.80,WNW,294,0.0,0.0,96,0.00,,,95.48,meteohub,2013-06-27 14:03:00,
2013-06-27 10:08:00,72.3,70.9,29.80,WNW,294,0.0,0.0,95,0.00,,,95.48,meteohub,2013-06-27 14:08:00,
2013-06-27 10:13:00,72.3,70.9,29.80,WNW,294,0.0,0.0,95,0.00,,,95.48,meteohub,2013-06-27 14:13:00,
2013-06-27 10:19:00,72.3,70.9,29.79,WNW,294,0.0,0.0,95,0.00,,,95.48,meteohub,2013-06-27 14:19:00,
2013-06-27 10:24:00,72.5,71.1,29.79,WNW,294,0.0,0.0,95,0.00,,,95.48,meteohub,2013-06-27 14:24:00,
2013-06-27 10:29:00,72.7,71.2,29.79,WNW,294,0.0,0.0,95,0.00,,,95.48,meteohub,2013-06-27 14:29:00,
2013-06-27 10:34:00,72.7,71.2,29.79,WNW,294,0.0,0.0,95,0.00,,,95.48,meteohub,2013-06-27 14:34:00,
2013-06-27 10:39:00,72.7,70.9,29.79,WNW,294,0.0,0.0,94,0.00,,,95.48,meteohub,2013-06-27 14:39:00,
2013-06-27 10:45:00,72.7,70.9,29.79,WNW,294,0.0,0.0,94,0.00,,,95.48,meteohub,2013-06-27 14:45:00,
2013-06-27 10:50:00,72.7,70.9,29.79,WNW,294,0.0,0.0,94,0.00,,,95.48,meteohub,2013-06-27 14:50:00,
2013-06-27 10:55:00,72.9,71.4,29.79,WNW,294,0.0,0.0,95,0.00,,,95.48,meteohub,2013-06-27 14:55:00,
2013-06-27 11:00:00,73.0,71.6,29.79,WNW,294,0.0,0.0,95,0.00,,,95.48,meteohub,2013-06-27 15:00:00,
2013-06-27 11:05:00,73.2,71.8,29.79,WNW,294,0.0,0.0,95,0.00,,,95.48,meteohub,2013-06-27 15:05:00,
2013-06-27 11:10:00,73.2,71.8,29.78,WNW,294,0.0,0.0,95,0.00,,,95.48,meteohub,2013-06-27 15:10:00,
2013-06-27 11:16:00,73.6,72.3,29.78,WNW,294,0.0,0.0,96,0.00,,,95.48,meteohub,2013-06-27 15:16:00,
2013-06-27 11:21:00,73.9,72.7,29.78,WNW,294,0.0,0.0,96,0.00,,,95.48,meteohub,2013-06-27 15:21:00,
2013-06-27 11:26:00,74.7,73.2,29.78,WNW,294,0.0,0.0,95,0.00,,,95.48,meteohub,2013-06-27 15:26:00,
2013-06-27 11:31:00,75.6,73.4,29.78,WNW,294,0.0,0.0,93,0.00,,,95.48,meteohub,2013-06-27 15:31:00,
2013-06-27 11:36:00,76.3,73.8,29.78,WNW,294,0.0,0.0,92,0.00,,,95.48,meteohub,2013-06-27 15:36:00,
2013-06-27 11:42:00,76.8,73.0,29.78,WNW,294,0.0,0.0,88,0.00,,,95.48,meteohub,2013-06-27 15:42:00,
2013-06-27 11:47:00,77.4,72.9,29.78,WNW,294,0.0,0.0,86,0.00,,,95.48,meteohub,2013-06-27 15:47:00,
2013-06-27 11:52:00,77.4,72.9,29.78,WNW,294,0.0,0.0,86,0.01,,,95.49,meteohub,2013-06-27 15:52:00,
2013-06-27 11:57:00,77.5,73.4,29.78,WNW,294,0.0,0.0,87,0.03,,,95.51,meteohub,2013-06-27 15:57:00,
2013-06-27 12:02:00,77.5,73.8,29.78,WNW,294,0.0,0.0,88,0.04,,,95.52,meteohub,2013-06-27 16:02:00,
2013-06-27 12:07:00,77.4,72.9,29.78,WNW,294,0.0,0.0,86,0.22,,,95.70,meteohub,2013-06-27 16:07:00,
2013-06-27 12:12:00,77.2,72.7,29.78,WNW,294,0.0,0.0,86,0.22,,,95.70,meteohub,2013-06-27 16:12:00,
2013-06-27 12:17:00,77.4,73.6,29.78,WNW,294,0.0,0.0,88,0.24,,,95.72,meteohub,2013-06-27 16:17:00,
2013-06-27 12:22:00,77.7,73.6,29.78,WNW,294,0.0,0.0,87,0.25,,,95.73,meteohub,2013-06-27 16:22:00,
2013-06-27 12:27:00,77.7,72.5,29.78,WNW,294,0.0,0.0,84,0.26,,,95.74,meteohub,2013-06-27 16:27:00,
2013-06-27 12:32:00,77.7,72.9,29.77,WNW,294,0.0,0.0,85,0.31,,,95.79,meteohub,2013-06-27 16:32:00,
2013-06-27 12:37:00,78.3,74.1,29.77,WNW,294,0.0,0.0,87,0.50,,,95.98,meteohub,2013-06-27 16:37:00,
2013-06-27 12:42:00,78.6,73.8,29.78,WNW,294,0.0,0.0,85,0.50,,,95.98,meteohub,2013-06-27 16:42:00,
2013-06-27 12:47:00,79.0,73.4,29.77,WNW,294,0.0,0.0,83,0.49,,,95.98,meteohub,2013-06-27 16:47:00,
2013-06-27 12:52:00,79.5,74.3,29.78,WNW,294,0.0,0.0,84,0.49,,,95.98,meteohub,2013-06-27 16:52:00,
2013-06-27 12:57:00,79.9,73.6,29.78,WNW,294,0.0,0.0,81,0.46,,,95.98,meteohub,2013-06-27 16:57:00,
2013-06-27 13:02:00,79.7,73.4,29.77,WNW,294,0.0,0.0,81,0.46,,,95.98,meteohub,2013-06-27 17:02:00,
2013-06-27 13:07:00,79.7,74.8,29.77,WNW,294,0.0,0.0,85,0.28,,,95.98,meteohub,2013-06-27 17:07:00,
2013-06-27 13:12:00,79.9,73.2,29.77,WNW,294,0.0,0.0,80,0.28,,,95.98,meteohub,2013-06-27 17:12:00,
2013-06-27 13:17:00,79.2,72.5,29.77,WNW,294,0.0,0.0,80,0.25,,,95.98,meteohub,2013-06-27 17:17:00,
2013-06-27 13:22:00,78.8,72.5,29.77,WNW,294,0.0,0.0,81,0.73,,,96.46,meteohub,2013-06-27 17:22:00,
2013-06-27 13:28:00,78.6,72.7,29.77,WNW,294,0.0,0.0,82,2.03,,,97.82,meteohub,2013-06-27 17:28:00,
2013-06-27 13:33:00,78.6,72.3,29.77,WNW,294,0.0,0.0,81,2.51,,,98.49,meteohub,2013-06-27 17:33:00,
2013-06-27 13:38:00,78.4,72.5,29.77,WNW,294,0.0,0.0,82,3.04,,,99.02,meteohub,2013-06-27 17:38:00,
2013-06-27 13:43:00,78.4,72.1,29.77,WNW,294,0.0,0.0,81,3.24,,,99.22,meteohub,2013-06-27 17:43:00,
2013-06-27 13:49:00,78.4,72.5,29.76,WNW,294,0.0,0.0,82,4.54,,,99.99,meteohub,2013-06-27 17:49:00,
2013-06-27 13:54:00,78.3,72.0,29.76,WNW,294,0.0,0.0,81,5.86,,,99.99,meteohub,2013-06-27 17:54:00,
2013-06-27 13:59:00,78.4,72.5,29.76,WNW,294,0.0,0.0,82,6.70,,,99.99,meteohub,2013-06-27 17:59:00,
2013-06-27 14:04:00,79.0,73.0,29.76,WNW,294,0.0,0.0,82,7.53,,,99.99,meteohub,2013-06-27 18:04:00,
2013-06-27 14:09:00,79.0,72.3,29.76,WNW,294,0.0,0.0,80,7.53,,,99.99,meteohub,2013-06-27 18:09:00,
2013-06-27 14:14:00,79.2,72.9,29.76,WNW,294,0.0,0.0,81,7.53,,,99.99,meteohub,2013-06-27 18:14:00,
2013-06-27 14:19:00,79.0,72.7,29.76,WNW,294,0.0,0.0,81,7.30,,,99.99,meteohub,2013-06-27 18:19:00,
2013-06-27 14:24:00,79.0,72.3,29.76,WNW,294,0.0,0.0,80,6.77,,,99.99,meteohub,2013-06-27 18:24:00,
2013-06-27 14:29:00,78.6,72.3,29.76,WNW,294,0.0,0.0,81,5.57,,,99.99,meteohub,2013-06-27 18:29:00,
2013-06-27 14:35:00,78.8,72.5,29.76,WNW,294,0.0,0.0,81,4.92,,,99.99,meteohub,2013-06-27 18:35:00,
2013-06-27 14:40:00,79.2,72.9,29.76,WNW,294,0.0,0.0,81,3.71,,,99.99,meteohub,2013-06-27 18:40:00,
2013-06-27 14:45:00,79.5,72.5,29.76,WNW,294,0.0,0.0,79,2.51,,,99.99,meteohub,2013-06-27 18:45:00,
2013-06-27 14:50:00,79.2,72.1,29.75,WNW,294,0.0,0.0,79,1.43,,,99.99,meteohub,2013-06-27 18:50:00,
2013-06-27 14:55:00,79.0,73.0,29.75,WNW,294,0.0,0.0,82,0.11,,,99.99,meteohub,2013-06-27 18:55:00,
2013-06-27 15:00:00,79.0,72.3,29.75,WNW,294,0.0,0.0,80,0.00,,,99.99,meteohub,2013-06-27 19:00:00,
2013-06-27 15:06:00,79.2,72.5,29.75,WNW,294,0.0,0.0,80,0.00,,,99.99,meteohub,2013-06-27 19:06:00,
2013-06-27 15:11:00,78.3,71.6,29.75,WNW,294,0.0,0.0,80,0.00,,,99.99,meteohub,2013-06-27 19:11:00,
2013-06-27 15:16:00,77.7,71.1,29.75,WNW,294,0.0,0.0,80,0.00,,,99.99,meteohub,2013-06-27 19:16:00,
2013-06-27 15:21:00,77.5,72.0,29.75,WNW,294,0.0,0.0,83,0.00,,,99.99,meteohub,2013-06-27 19:21:00,
2013-06-27 15:26:00,77.7,71.8,29.75,WNW,294,0.0,0.0,82,0.00,,,99.99,meteohub,2013-06-27 19:26:00,
2013-06-27 15:31:00,77.7,71.4,29.75,WNW,294,0.0,0.0,81,0.00,,,99.99,meteohub,2013-06-27 19:31:00,
2013-06-27 15:37:00,77.5,71.6,29.75,WNW,294,0.0,0.0,82,0.00,,,99.99,meteohub,2013-06-27 19:37:00,
2013-06-27 15:42:00,77.2,71.2,29.75,WNW,294,0.0,0.0,82,0.00,,,99.99,meteohub,2013-06-27 19:42:00,
2013-06-27 15:47:00,76.8,70.9,29.75,WNW,294,0.0,0.0,82,0.00,,,99.99,meteohub,2013-06-27 19:47:00,
2013-06-27 15:52:00,76.6,70.7,29.75,WNW,294,0.0,0.0,82,0.00,,,99.99,meteohub,2013-06-27 19:52:00,
2013-06-27 15:57:00,76.3,70.7,29.75,WNW,294,0.0,0.0,83,0.00,,,99.99,meteohub,2013-06-27 19:57:00,
2013-06-27 16:02:00,75.9,70.0,29.75,WNW,294,0.0,0.0,82,0.00,,,99.99,meteohub,2013-06-27 20:02:00,
2013-06-27 16:07:00,75.9,71.1,29.75,WNW,294,0.0,0.0,85,0.00,,,99.99,meteohub,2013-06-27 20:07:00,
2013-06-27 16:12:00,75.9,70.3,29.75,WNW,294,0.0,0.0,83,0.00,,,99.99,meteohub,2013-06-27 20:12:00,
2013-06-27 16:18:00,75.4,70.2,29.75,WNW,294,0.0,0.0,84,0.00,,,99.99,meteohub,2013-06-27 20:18:00,
2013-06-27 16:23:00,75.0,70.2,29.75,WNW,294,0.0,0.0,85,0.00,,,99.99,meteohub,2013-06-27 20:23:00,
2013-06-27 16:28:00,74.8,70.0,29.75,WNW,294,0.0,0.0,85,0.00,,,99.99,meteohub,2013-06-27 20:28:00,
2013-06-27 16:33:00,74.7,70.2,29.75,WNW,294,0.0,0.0,86,0.00,,,99.99,meteohub,2013-06-27 20:33:00,
2013-06-27 16:39:00,74.7,70.2,29.74,WNW,294,0.0,0.0,86,0.00,,,99.99,meteohub,2013-06-27 20:39:00,
2013-06-27 16:44:00,74.8,70.0,29.74,WNW,294,0.0,0.0,85,0.00,,,99.99,meteohub,2013-06-27 20:44:00,
2013-06-27 16:49:00,74.7,69.8,29.74,WNW,294,0.0,0.0,85,0.00,,,99.99,meteohub,2013-06-27 20:49:00,
2013-06-27 16:54:00,74.1,69.6,29.74,WNW,294,0.0,0.0,86,0.00,,,99.99,meteohub,2013-06-27 20:54:00,
2013-06-27 16:59:00,73.9,69.8,29.74,WNW,294,0.0,0.0,87,0.00,,,99.99,meteohub,2013-06-27 20:59:00,
2013-06-27 17:05:00,73.8,69.6,29.74,WNW,294,0.0,0.0,87,0.00,,,99.99,meteohub,2013-06-27 21:05:00,
2013-06-27 17:10:00,73.8,69.6,29.73,WNW,294,0.0,0.0,87,0.00,,,99.99,meteohub,2013-06-27 21:10:00,
2013-06-27 17:15:00,73.8,70.0,29.73,WNW,294,0.0,0.0,88,0.00,,,99.99,meteohub,2013-06-27 21:15:00,
2013-06-27 17:20:00,73.6,69.8,29.73,WNW,294,0.0,0.0,88,0.00,,,99.99,meteohub,2013-06-27 21:20:00,
2013-06-27 17:26:00,73.8,70.0,29.73,WNW,294,0.0,0.0,88,0.00,,,99.99,meteohub,2013-06-27 21:26:00,
2013-06-27 17:31:00,73.8,69.6,29.73,WNW,294,0.0,0.0,87,0.00,,,99.99,meteohub,2013-06-27 21:31:00,
2013-06-27 17:36:00,73.8,70.0,29.73,WNW,294,0.0,0.0,88,0.00,,,99.99,meteohub,2013-06-27 21:36:00,
2013-06-27 17:41:00,73.6,69.8,29.73,WNW,294,0.0,0.0,88,0.00,,,99.99,meteohub,2013-06-27 21:41:00,
2013-06-27 17:46:00,73.6,69.8,29.73,WNW,294,0.0,0.0,88,0.00,,,99.99,meteohub,2013-06-27 21:46:00,
2013-06-27 17:51:00,73.4,69.6,29.73,WNW,294,0.0,0.0,88,0.00,,,99.99,meteohub,2013-06-27 21:51:00,
2013-06-27 17:56:00,73.4,69.6,29.73,WNW,294,0.0,0.0,88,0.00,,,99.99,meteohub,2013-06-27 21:56:00,
2013-06-27 18:02:00,73.2,69.8,29.73,WNW,294,0.0,0.0,89,0.00,,,99.99,meteohub,2013-06-27 22:02:00,
2013-06-27 18:07:00,73.0,69.3,29.73,WNW,294,0.0,0.0,88,0.00,,,99.99,meteohub,2013-06-27 22:07:00,
2013-06-27 18:12:00,73.0,69.6,29.73,WNW,294,0.0,0.0,89,0.00,,,99.99,meteohub,2013-06-27 22:12:00,
2013-06-27 18:17:00,73.0,69.6,29.72,WNW,294,0.0,0.0,89,0.00,,,99.99,meteohub,2013-06-27 22:17:00,
2013-06-27 18:22:00,72.9,69.4,29.72,WNW,294,0.0,0.0,89,0.00,,,99.99,meteohub,2013-06-27 22:22:00,
2013-06-27 18:27:00,72.9,69.8,29.73,WNW,294,0.0,0.0,90,0.00,,,99.99,meteohub,2013-06-27 22:27:00,
2013-06-27 18:32:00,72.7,69.3,29.73,WNW,294,0.0,0.0,89,0.00,,,99.99,meteohub,2013-06-27 22:32:00,
2013-06-27 18:37:00,72.7,69.6,29.73,WNW,294,0.0,0.0,90,0.00,,,99.99,meteohub,2013-06-27 22:37:00,
2013-06-27 18:42:00,72.7,69.6,29.73,WNW,294,0.0,0.0,90,0.00,,,99.99,meteohub,2013-06-27 22:42:00,
2013-06-27 18:47:00,72.5,69.4,29.73,WNW,294,0.0,0.0,90,0.00,,,99.99,meteohub,2013-06-27 22:47:00,
2013-06-27 18:52:00,72.3,69.3,29.73,WNW,294,0.0,0.0,90,0.00,,,99.99,meteohub,2013-06-27 22:52:00,
2013-06-27 18:57:00,72.3,69.3,29.73,WNW,294,0.0,0.0,90,0.00,,,99.99,meteohub,2013-06-27 22:57:00,
2013-06-27 19:02:00,72.3,69.3,29.73,WNW,294,0.0,0.0,90,0.00,,,99.99,meteohub,2013-06-27 23:02:00,
2013-06-27 19:07:00,72.1,69.1,29.73,WNW,294,0.0,0.0,90,0.00,,,99.99,meteohub,2013-06-27 23:07:00,
2013-06-27 19:12:00,72.1,69.4,29.73,WNW,294,0.0,0.0,91,0.00,,,99.99,meteohub,2013-06-27 23:12:00,
2013-06-27 19:18:00,72.1,69.4,29.73,WNW,294,0.0,0.0,91,0.00,,,99.99,meteohub,2013-06-27 23:18:00,
2013-06-27 19:23:00,72.1,69.4,29.73,WNW,294,0.0,0.0,91,0.00,,,99.99,meteohub,2013-06-27 23:23:00,
2013-06-27 19:28:00,72.1,69.4,29.73,WNW,294,0.0,0.0,91,0.00,,,99.99,meteohub,2013-06-27 23:28:00,
2013-06-27 19:33:00,72.0,69.3,29.74,WNW,294,0.0,0.0,91,0.00,,,99.99,meteohub,2013-06-27 23:33:00,
2013-06-27 19:38:00,71.8,69.1,29.73,WNW,294,0.0,0.0,91,0.00,,,99.99,meteohub,2013-06-27 23:38:00,
2013-06-27 19:44:00,71.6,69.1,29.73,WNW,294,0.0,0.0,92,0.00,,,99.99,meteohub,2013-06-27 23:44:00,
2013-06-27 19:49:00,71.2,68.7,29.72,WNW,294,0.0,0.0,92,0.00,,,99.99,meteohub,2013-06-27 23:49:00,
2013-06-27 19:54:00,71.2,68.7,29.72,WNW,294,0.0,0.0,92,0.00,,,99.99,meteohub,2013-06-27 23:54:00,
2013-06-27 20:00:00,71.1,68.5,29.72,WNW,294,0.0,0.0,92,0.00,,,99.99,meteohub,2013-06-28 00:00:00,
2013-06-27 20:05:00,71.1,68.9,29.72,WNW,294,0.0,0.0,93,0.00,,,0.00,meteohub,2013-06-28 00:05:00,
2013-06-27 20:10:00,70.9,68.7,29.71,WNW,294,0.0,0.0,93,0.00,,,0.00,meteohub,2013-06-28 00:10:00,
2013-06-27 20:15:00,70.9,68.7,29.71,WNW,294,0.0,0.0,93,0.00,,,0.00,meteohub,2013-06-28 00:15:00,
2013-06-27 20:20:00,70.5,68.4,29.71,WNW,294,0.0,0.0,93,0.00,,,0.00,meteohub,2013-06-28 00:20:00,
2013-06-27 20:25:00,70.5,68.4,29.71,WNW,294,0.0,0.0,93,0.00,,,0.00,meteohub,2013-06-28 00:25:00,
2013-06-27 20:30:00,70.3,68.2,29.71,WNW,294,0.0,0.0,93,0.00,,,0.00,meteohub,2013-06-28 00:30:00,
2013-06-27 20:36:00,70.3,68.5,29.72,WNW,294,0.0,0.0,94,0.00,,,0.00,meteohub,2013-06-28 00:36:00,
2013-06-27 20:41:00,70.3,68.5,29.72,WNW,294,0.0,0.0,94,0.00,,,0.00,meteohub,2013-06-28 00:41:00,
2013-06-27 20:46:00,70.2,68.4,29.72,WNW,294,0.0,0.0,94,0.00,,,0.00,meteohub,2013-06-28 00:46:00,
2013-06-27 20:52:00,70.2,68.4,29.72,WNW,294,0.0,0.0,94,0.00,,,0.00,meteohub,2013-06-28 00:52:00,
2013-06-27 20:57:00,70.2,68.4,29.72,WNW,294,0.0,0.0,94,0.00,,,0.00,meteohub,2013-06-28 00:57:00,
2013-06-27 21:02:00,70.0,68.2,29.72,WNW,294,0.0,0.0,94,0.00,,,0.00,meteohub,2013-06-28 01:02:00,
2013-06-27 21:07:00,70.0,68.2,29.72,WNW,294,0.0,0.0,94,0.00,,,0.00,meteohub,2013-06-28 01:07:00,
2013-06-27 21:13:00,69.6,68.2,29.71,WNW,294,0.0,0.0,95,0.00,,,0.00,meteohub,2013-06-28 01:13:00,
2013-06-27 21:18:00,69.6,68.2,29.71,WNW,294,0.0,0.0,95,0.00,,,0.00,meteohub,2013-06-28 01:18:00,
2013-06-27 21:23:00,69.4,68.0,29.71,WNW,294,0.0,0.0,95,0.00,,,0.00,meteohub,2013-06-28 01:23:00,
2013-06-27 21:29:00,69.4,68.0,29.71,WNW,294,0.0,0.0,95,0.00,,,0.00,meteohub,2013-06-28 01:29:00,
2013-06-27 21:34:00,69.4,68.0,29.71,WNW,294,0.0,0.0,95,0.00,,,0.00,meteohub,2013-06-28 01:34:00,
2013-06-27 21:39:00,69.3,68.0,29.71,WNW,294,0.0,0.0,96,0.00,,,0.00,meteohub,2013-06-28 01:39:00,
2013-06-27 21:44:00,69.3,68.0,29.70,WNW,294,0.0,0.0,96,0.00,,,0.00,meteohub,2013-06-28 01:44:00,
2013-06-27 21:49:00,69.3,68.0,29.70,WNW,294,0.0,0.0,96,0.00,,,0.00,meteohub,2013-06-28 01:49:00,
2013-06-27 21:55:00,69.3,68.0,29.70,WNW,294,0.0,0.0,96,0.00,,,0.00,meteohub,2013-06-28 01:55:00,
2013-06-27 22:00:00,69.3,68.0,29.70,WNW,294,0.0,0.0,96,0.00,,,0.00,meteohub,2013-06-28 02:00:00,
2013-06-27 22:05:00,69.3,68.0,29.70,WNW,294,0.0,0.0,96,0.00,,,0.00,meteohub,2013-06-28 02:05:00,
2013-06-27 22:10:00,69.3,68.0,29.69,WNW,294,0.0,0.0,96,0.00,,,0.00,meteohub,2013-06-28 02:10:00,
2013-06-27 22:15:00,69.1,67.8,29.68,WNW,294,0.0,0.0,96,0.00,,,0.00,meteohub,2013-06-28 02:15:00,
2013-06-27 22:20:00,69.1,67.8,29.68,WNW,294,0.0,0.0,96,0.00,,,0.00,meteohub,2013-06-28 02:20:00,
2013-06-27 22:26:00,69.1,67.8,29.67,WNW,294,0.0,0.0,96,0.00,,,0.00,meteohub,2013-06-28 02:26:00,
2013-06-27 22:31:00,69.1,67.8,29.67,WNW,294,0.0,0.0,96,0.00,,,0.00,meteohub,2013-06-28 02:31:00,
2013-06-27 22:36:00,69.1,67.8,29.67,WNW,294,0.0,0.0,96,0.00,,,0.00,meteohub,2013-06-28 02:36:00,
2013-06-27 22:42:00,69.1,67.8,29.67,WNW,294,0.0,0.0,96,0.00,,,0.00,meteohub,2013-06-28 02:42:00,
2013-06-27 22:47:00,69.1,67.8,29.66,WNW,294,0.0,0.0,96,0.00,,,0.00,meteohub,2013-06-28 02:47:00,
2013-06-27 22:52:00,68.9,67.6,29.65,WNW,294,0.0,0.0,96,0.00,,,0.00,meteohub,2013-06-28 02:52:00,
2013-06-27 22:57:00,68.7,67.5,29.66,WNW,294,0.0,0.0,96,0.00,,,0.00,meteohub,2013-06-28 02:57:00,
2013-06-27 23:02:00,68.7,67.8,29.66,WNW,294,0.0,0.0,97,0.00,,,0.00,meteohub,2013-06-28 03:02:00,
2013-06-27 23:07:00,68.5,67.6,29.66,WNW,294,0.0,0.0,97,0.00,,,0.00,meteohub,2013-06-28 03:07:00,
2013-06-27 23:12:00,68.5,67.6,29.66,WNW,294,0.0,0.0,97,0.00,,,0.00,meteohub,2013-06-28 03:12:00,
2013-06-27 23:18:00,68.5,67.6,29.66,WNW,294,0.0,0.0,97,0.00,,,0.00,meteohub,2013-06-28 03:18:00,
2013-06-27 23:24:00,68.5,68.0,29.66,WNW,294,0.0,0.0,98,0.00,,,0.00,meteohub,2013-06-28 03:24:00,
2013-06-27 23:29:00,68.4,67.8,29.65,WNW,294,0.0,0.0,98,0.00,,,0.00,meteohub,2013-06-28 03:29:00,
2013-06-27 23:34:00,68.4,67.8,29.65,WNW,294,0.0,0.0,98,0.00,,,0.00,meteohub,2013-06-28 03:34:00,
2013-06-27 23:39:00,68.4,67.8,29.65,WNW,294,0.0,0.0,98,0.00,,,0.00,meteohub,2013-06-28 03:39:00,
2013-06-27 23:45:00,68.4,67.8,29.64,WNW,294,0.0,0.0,98,0.00,,,0.00,meteohub,2013-06-28 03:45:00,
2013-06-27 23:50:00,68.4,67.8,29.64,WNW,294,0.0,0.0,98,0.00,,,0.00,meteohub,2013-06-28 03:50:00,
2013-06-27 23:55:00,68.2,67.6,29.63,WNW,294,0.0,0.0,98,0.00,,,0.00,meteohub,2013-06-28 03:55:00,